Briefing drone pour Marsannay-la-cote

Rechercher une autre localisation

Conditions de vol :


Nous sommes le : Samedi 16 octobre 2021
Il est 11:51 UTC (13:51 LT)

Lever de soleil : 05:33 UTC (07:33 LT)
Coucher de soleil : 17:17 UTC (19:17 LT)

Météo

L'essentiel des conditions de vol

VIGILANCE MÉTÉO FRANCE - Côte-dOr (21)
Pas de vigilances particulieres
CARTES DES FRONTS
METAR de LFSD
LFSD 161130Z AUTO 04007KT 010V100 CAVOK 15/08 Q1020

Date d'émission: 16/10/2021
Heure d'émission: 11:30 UTC
Vent: 040° (variable du 010° au 100°) pour 7 KT (13 km/h)
Visibilité horizontale: > 10 km
Plafond : Plafond et visibilité OK (CAVOK)
Température: 15 °C
Point de rosée: 8 °C
Humidité: 63%
Pression (QNH): 1020 hPa
TAF de LFSD
LFSD 010600Z 0100/0124 CNL

Conditions prévues :

Heure d'émission : Bulletin éffectué le 01 à 00:00 UTC
Prévision : Valide du 01 a 00:00 UTC au 01 a 23:59 UTC
Nuages : à 0ft (0 m)
WEBCAM POUR MARSANNAY-LA-COTE

Réglementation

Voler en sécurité

CARTES AERONAUTIQUE 1/500.000
CARTES VAC (LFSD)
SUP AIP




Chargement des AIP...
NOTAM (MARSANNAY-LA-COTE + Terrain à proximité / FIR )




Chargement des NOTAMS...
CONTACT PREFECTURE 21
Côte-dOr (21) : pref-drone@cote-dor.gouv.fr


Avertissement : Les données mises à disposition sont indicatives. Oxygène Drone ne pourra être tenu responsable de dégâts causés aux biens et aux personnes.